Time;durP1;ratioP1;P1;durP2;ratioP2;P2;SDS_P1;SDS_P2;PMS_P1;PMS_P2;Temp;Humidity;BMP_temperature;BMP_pressure;BME280_temperature;BME280_humidity;BME280_pressure;Samples;Min_cycle;Max_cycle;Signal;HPM_P1;HPM_P2
2022/06/01 00:02:39;;;;;;;9.05;4.20;;;;;;;;;;5135666;27;20047;-84
2022/06/01 00:05:25;;;;;;;7.60;4.13;;;;;;;;;;5135702;27;20403;-84
2022/06/01 00:08:17;;;;;;;9.25;4.53;;;;;;;;;;5136301;27;20047;-84
2022/06/01 00:11:02;;;;;;;7.18;4.32;;;;;;;;;;5121258;27;20039;-85
2022/06/01 00:13:47;;;;;;;10.95;4.30;;;;;;;;;;5135468;27;20047;-85
2022/06/01 00:16:33;;;;;;;12.15;4.38;;;;;;;;;;5142266;27;20046;-84
2022/06/01 00:19:18;;;;;;;11.77;4.25;;;;;;;;;;5135257;27;20039;-83
2022/06/01 00:22:17;;;;;;;10.93;4.32;;;;;;;;;;5135223;27;20434;-85
2022/06/01 00:25:04;;;;;;;6.88;3.72;;;;;;;;;;5126549;27;20046;-85
2022/06/01 00:27:51;;;;;;;9.20;3.97;;;;;;;;;;5126190;27;20047;-84
2022/06/01 00:30:36;;;;;;;8.23;4.38;;;;;;;;;;5135698;27;20403;-83
2022/06/01 00:33:21;;;;;;;23.42;4.05;;;;;;;;;;5126665;27;20043;-84
2022/06/01 00:36:07;;;;;;;16.65;4.90;;;;;;;;;;5139406;27;20043;-84
2022/06/01 00:38:53;;;;;;;6.68;3.80;;;;;;;;;;5158863;27;20063;-84
2022/06/01 00:41:38;;;;;;;9.25;3.80;;;;;;;;;;5134735;27;20484;-84
2022/06/01 00:44:23;;;;;;;8.75;4.28;;;;;;;;;;5134992;27;20419;-84
2022/06/01 00:47:10;;;;;;;8.77;4.03;;;;;;;;;;5135095;27;20035;-84
2022/06/01 00:50:29;;;;;;;7.68;3.90;;;;;;;;;;5134593;27;20055;-84
2022/06/01 00:53:18;;;;;;;8.65;4.28;;;;;;;;;;5141753;27;20038;-83
2022/06/01 00:56:14;;;;;;;17.38;3.60;;;;;;;;;;5134601;27;20039;-83
2022/06/01 00:59:03;;;;;;;12.70;4.15;;;;;;;;;;5134640;28;20039;-84
2022/06/01 01:01:50;;;;;;;10.27;4.35;;;;;;;;;;5119341;28;20488;-85
2022/06/01 01:04:36;;;;;;;6.15;3.65;;;;;;;;;;5134681;28;20043;-84
2022/06/01 01:07:21;;;;;;;9.32;3.58;;;;;;;;;;5122703;28;20051;-83
2022/06/01 01:10:07;;;;;;;9.73;3.95;;;;;;;;;;5119157;28;20051;-84
2022/06/01 01:12:57;;;;;;;7.20;3.85;;;;;;;;;;5134596;28;20035;-84
2022/06/01 01:15:58;;;;;;;12.52;3.80;;;;;;;;;;5134444;28;20043;-85
2022/06/01 01:18:46;;;;;;;8.38;4.70;;;;;;;;;;5141366;27;20043;-83
2022/06/01 01:22:12;;;;;;;4.97;3.63;;;;;;;;;;5134510;28;20407;-83
2022/06/01 01:25:18;;;;;;;13.50;4.35;;;;;;;;;;5141138;27;20047;-83
2022/06/01 01:28:05;;;;;;;8.50;4.22;;;;;;;;;;5134605;28;20047;-83
2022/06/01 01:31:18;;;;;;;11.73;4.55;;;;;;;;;;5141164;27;20396;-84
2022/06/01 01:34:05;;;;;;;6.45;4.15;;;;;;;;;;5134424;28;20027;-83
2022/06/01 01:36:54;;;;;;;12.48;4.40;;;;;;;;;;5126268;27;20039;-84
2022/06/01 01:39:39;;;;;;;13.75;4.45;;;;;;;;;;5144480;27;20384;-84
2022/06/01 01:42:25;;;;;;;12.18;3.85;;;;;;;;;;5138385;27;20038;-83
2022/06/01 01:45:23;;;;;;;11.50;4.40;;;;;;;;;;5144946;27;20039;-84
2022/06/01 01:48:08;;;;;;;12.25;3.53;;;;;;;;;;5138197;27;20043;-83
2022/06/01 01:50:54;;;;;;;8.18;3.80;;;;;;;;;;5138465;27;20047;-83
2022/06/01 01:53:41;;;;;;;6.95;3.58;;;;;;;;;;5138154;27;20043;-84
2022/06/01 01:56:32;;;;;;;11.27;4.10;;;;;;;;;;5145151;27;20051;-84
2022/06/01 01:59:53;;;;;;;14.55;4.35;;;;;;;;;;5137737;27;20047;-84
2022/06/01 02:02:55;;;;;;;10.00;3.92;;;;;;;;;;5138004;27;20035;-84
2022/06/01 02:06:14;;;;;;;12.80;3.90;;;;;;;;;;5144857;27;20051;-84
2022/06/01 02:09:10;;;;;;;8.40;3.40;;;;;;;;;;5137604;27;20039;-86
2022/06/01 02:15:30;;;;;;;7.47;4.13;;;;;;;;;;5074187;28;20044;-84
2022/06/01 02:18:22;;;;;;;10.93;4.22;;;;;;;;;;5144772;27;20035;-83
2022/06/01 02:21:15;;;;;;;8.48;4.03;;;;;;;;;;5144221;27;20065;-84
2022/06/01 02:24:01;;;;;;;11.23;3.72;;;;;;;;;;5138128;27;20406;-84
2022/06/01 02:26:49;;;;;;;8.23;4.00;;;;;;;;;;5137385;27;20031;-84
2022/06/01 02:29:40;;;;;;;15.00;4.47;;;;;;;;;;5143998;27;20039;-84
2022/06/01 02:32:28;;;;;;;7.63;3.85;;;;;;;;;;5144868;27;20043;-84
2022/06/01 02:35:16;;;;;;;6.72;3.63;;;;;;;;;;5137193;27;20039;-84
2022/06/01 02:38:10;;;;;;;9.82;4.03;;;;;;;;;;5144148;27;20046;-83
2022/06/01 02:40:55;;;;;;;5.80;3.28;;;;;;;;;;5137469;27;20035;-84
2022/06/01 02:43:50;;;;;;;10.10;3.58;;;;;;;;;;5137018;27;20035;-84
2022/06/01 02:46:36;;;;;;;6.32;3.95;;;;;;;;;;5137443;27;20039;-84
2022/06/01 02:49:22;;;;;;;9.10;3.80;;;;;;;;;;5148394;27;20031;-85
2022/06/01 02:52:07;;;;;;;11.55;4.10;;;;;;;;;;5155027;27;20043;-85
2022/06/01 02:54:53;;;;;;;9.00;4.00;;;;;;;;;;5137310;27;20380;-84
2022/06/01 02:57:43;;;;;;;7.72;3.58;;;;;;;;;;5121306;27;20030;-85
2022/06/01 03:00:37;;;;;;;8.48;3.50;;;;;;;;;;5136860;27;20043;-85
2022/06/01 03:03:21;;;;;;;9.35;3.72;;;;;;;;;;5136181;27;20039;-86
2022/06/01 03:06:06;;;;;;;9.27;3.53;;;;;;;;;;5136966;27;20031;-85
2022/06/01 03:08:52;;;;;;;8.52;3.40;;;;;;;;;;5137000;27;20039;-85
2022/06/01 03:11:37;;;;;;;7.97;3.72;;;;;;;;;;5127720;27;20043;-84
2022/06/01 03:14:23;;;;;;;5.82;3.30;;;;;;;;;;5128172;27;20034;-84
2022/06/01 03:17:09;;;;;;;9.48;3.40;;;;;;;;;;5136369;27;20038;-85
2022/06/01 03:19:54;;;;;;;5.38;3.13;;;;;;;;;;5136438;27;20472;-85
2022/06/01 03:22:43;;;;;;;6.80;3.30;;;;;;;;;;5136105;27;20043;-85
2022/06/01 03:25:29;;;;;;;7.18;3.40;;;;;;;;;;5136178;27;20395;-85
2022/06/01 03:28:15;;;;;;;8.50;3.10;;;;;;;;;;5127628;27;20488;-84
2022/06/01 03:31:01;;;;;;;8.68;3.30;;;;;;;;;;5127404;27;20039;-87
2022/06/01 03:33:47;;;;;;;7.60;3.42;;;;;;;;;;5127665;27;20039;-86
2022/06/01 03:36:33;;;;;;;7.50;3.05;;;;;;;;;;5120943;27;20500;-86
2022/06/01 03:39:18;;;;;;;9.75;3.40;;;;;;;;;;5120816;27;20078;-86
2022/06/01 03:42:04;;;;;;;7.57;3.30;;;;;;;;;;5127431;27;20391;-86
2022/06/01 03:47:53;;;;;;;8.68;3.20;;;;;;;;;;5135798;27;20042;-85
2022/06/01 03:50:38;;;;;;;8.50;3.40;;;;;;;;;;5142649;27;20393;-86
2022/06/01 03:53:24;;;;;;;8.70;3.60;;;;;;;;;;5135123;27;20043;-86
2022/06/01 03:56:11;;;;;;;19.02;3.58;;;;;;;;;;5135670;27;20047;-85
2022/06/01 03:58:56;;;;;;;10.98;3.08;;;;;;;;;;5135612;27;20043;-86
2022/06/01 04:01:42;;;;;;;9.98;3.10;;;;;;;;;;5134620;27;20039;-85
2022/06/01 04:04:28;;;;;;;6.88;3.10;;;;;;;;;;5120332;27;20050;-85
2022/06/01 04:07:13;;;;;;;5.38;3.38;;;;;;;;;;5134974;27;20035;-86
2022/06/01 04:09:59;;;;;;;6.40;3.25;;;;;;;;;;5135199;27;20047;-86
2022/06/01 04:12:44;;;;;;;7.97;3.33;;;;;;;;;;5126870;27;20031;-85
2022/06/01 04:15:30;;;;;;;7.05;3.10;;;;;;;;;;5135096;27;20039;-85
2022/06/01 04:18:15;;;;;;;8.50;3.60;;;;;;;;;;5135324;27;20069;-86
2022/06/01 04:21:01;;;;;;;7.00;3.50;;;;;;;;;;5142070;27;20387;-86
2022/06/01 04:23:48;;;;;;;11.18;3.97;;;;;;;;;;5135177;27;20039;-85
2022/06/01 04:26:34;;;;;;;12.70;3.75;;;;;;;;;;5135613;27;20400;-85
2022/06/01 04:29:19;;;;;;;13.77;3.92;;;;;;;;;;5134617;27;20039;-85
2022/06/01 04:32:09;;;;;;;10.10;3.50;;;;;;;;;;5135170;27;20484;-85
2022/06/01 04:34:54;;;;;;;13.13;3.63;;;;;;;;;;5135154;27;20039;-85
2022/06/01 04:37:40;;;;;;;9.90;3.35;;;;;;;;;;5134792;27;20043;-85
2022/06/01 04:40:25;;;;;;;9.60;3.20;;;;;;;;;;5142073;27;20395;-85
2022/06/01 04:43:16;;;;;;;14.02;4.20;;;;;;;;;;5119206;27;20039;-86
2022/06/01 04:46:01;;;;;;;10.93;3.75;;;;;;;;;;5135119;27;20376;-86
2022/06/01 04:48:47;;;;;;;8.43;4.07;;;;;;;;;;5134758;27;20484;-86
2022/06/01 04:51:32;;;;;;;22.23;4.22;;;;;;;;;;5134342;27;20039;-86
2022/06/01 04:54:17;;;;;;;9.02;3.83;;;;;;;;;;5134991;27;20043;-86
2022/06/01 04:57:03;;;;;;;12.27;4.60;;;;;;;;;;5134440;27;20043;-86
2022/06/01 04:59:48;;;;;;;12.57;3.63;;;;;;;;;;5134764;27;20039;-86
2022/06/01 05:02:34;;;;;;;12.55;3.80;;;;;;;;;;5154486;28;20043;-84
2022/06/01 05:05:20;;;;;;;10.98;3.90;;;;;;;;;;5139196;28;20039;-85
2022/06/01 05:08:10;;;;;;;10.75;4.15;;;;;;;;;;5134443;28;20055;-86
2022/06/01 05:10:56;;;;;;;10.90;3.78;;;;;;;;;;5134504;28;20043;-86
2022/06/01 05:13:41;;;;;;;14.00;5.43;;;;;;;;;;5138326;27;20484;-86
2022/06/01 05:16:27;;;;;;;11.85;4.28;;;;;;;;;;5138931;27;20039;-86
2022/06/01 05:19:12;;;;;;;14.45;3.65;;;;;;;;;;5138570;27;20035;-83
2022/06/01 05:21:59;;;;;;;10.93;3.65;;;;;;;;;;5138985;27;20043;-84
2022/06/01 05:24:45;;;;;;;13.40;3.78;;;;;;;;;;5138664;27;20043;-84
2022/06/01 05:27:30;;;;;;;13.85;4.15;;;;;;;;;;5139161;27;20047;-82
2022/06/01 05:30:16;;;;;;;9.85;3.70;;;;;;;;;;5138426;27;20043;-83
2022/06/01 05:33:02;;;;;;;8.27;3.35;;;;;;;;;;5145301;27;20039;-82
2022/06/01 05:35:47;;;;;;;12.00;3.30;;;;;;;;;;5138447;27;20047;-81
2022/06/01 05:38:32;;;;;;;9.07;3.50;;;;;;;;;;5138388;27;20054;-81
2022/06/01 05:41:18;;;;;;;9.32;3.55;;;;;;;;;;5145114;27;20408;-81
2022/06/01 05:44:04;;;;;;;9.32;3.65;;;;;;;;;;5138438;27;20035;-82
2022/06/01 05:46:54;;;;;;;8.07;3.33;;;;;;;;;;5129616;27;20076;-82
2022/06/01 05:49:39;;;;;;;12.02;3.42;;;;;;;;;;5138592;27;20039;-81
2022/06/01 05:52:24;;;;;;;10.18;3.53;;;;;;;;;;5138284;27;20027;-81
2022/06/01 05:55:11;;;;;;;7.43;3.25;;;;;;;;;;5137642;27;20400;-81
2022/06/01 05:57:57;;;;;;;8.35;3.17;;;;;;;;;;5138424;27;20051;-80
2022/06/01 06:00:44;;;;;;;9.77;3.42;;;;;;;;;;5137595;27;20400;-82
2022/06/01 06:03:30;;;;;;;11.73;3.78;;;;;;;;;;5137821;27;20047;-81
2022/06/01 06:06:16;;;;;;;11.57;3.60;;;;;;;;;;5144524;27;20047;-82
2022/06/01 06:09:08;;;;;;;8.00;3.13;;;;;;;;;;5144469;27;20395;-79
2022/06/01 06:11:53;;;;;;;9.35;3.20;;;;;;;;;;5145077;27;20047;-81
2022/06/01 06:14:39;;;;;;;10.80;3.03;;;;;;;;;;5137493;27;20047;-81
2022/06/01 06:17:25;;;;;;;9.45;3.30;;;;;;;;;;5138092;27;20047;-81
2022/06/01 06:20:11;;;;;;;7.90;2.90;;;;;;;;;;5137572;27;20035;-80
2022/06/01 06:22:57;;;;;;;12.88;3.65;;;;;;;;;;5144446;27;20047;-81
2022/06/01 06:25:43;;;;;;;9.98;3.53;;;;;;;;;;5143984;27;20479;-80
2022/06/01 06:28:30;;;;;;;9.75;2.92;;;;;;;;;;5144310;27;20047;-80
2022/06/01 06:31:16;;;;;;;9.35;2.78;;;;;;;;;;5137342;27;20047;-80
2022/06/01 06:34:01;;;;;;;6.55;2.58;;;;;;;;;;5144270;27;20047;-81
2022/06/01 06:36:46;;;;;;;7.55;2.60;;;;;;;;;;5136919;27;20050;-80
2022/06/01 06:39:31;;;;;;;6.15;2.40;;;;;;;;;;5144170;27;20039;-81
2022/06/01 06:42:17;;;;;;;4.30;2.55;;;;;;;;;;5144343;27;20476;-81
2022/06/01 06:45:04;;;;;;;9.45;2.55;;;;;;;;;;5137088;27;20039;-80
2022/06/01 06:47:50;;;;;;;5.50;2.60;;;;;;;;;;5137402;27;20043;-81
2022/06/01 06:50:35;;;;;;;5.35;2.42;;;;;;;;;;5143727;27;20031;-82
2022/06/01 06:53:20;;;;;;;9.73;2.72;;;;;;;;;;5121700;27;20503;-81
2022/06/01 06:56:07;;;;;;;9.43;2.40;;;;;;;;;;5136868;27;20043;-81
2022/06/01 06:58:51;;;;;;;7.80;2.05;;;;;;;;;;5136917;27;20034;-81
2022/06/01 07:01:37;;;;;;;8.05;2.50;;;;;;;;;;5136982;27;20047;-79
2022/06/01 07:04:22;;;;;;;7.55;2.30;;;;;;;;;;5136590;27;20043;-81
2022/06/01 07:07:07;;;;;;;13.70;2.70;;;;;;;;;;5140563;27;20047;-81
2022/06/01 07:09:53;;;;;;;7.13;2.25;;;;;;;;;;5143266;27;20035;-81
2022/06/01 07:12:38;;;;;;;6.07;2.38;;;;;;;;;;5137976;27;20046;-79
2022/06/01 07:15:24;;;;;;;10.05;2.72;;;;;;;;;;5147235;27;20412;-80
2022/06/01 07:18:10;;;;;;;9.18;3.13;;;;;;;;;;5143765;27;20035;-81
2022/06/01 07:20:55;;;;;;;8.73;2.35;;;;;;;;;;5136660;27;20069;-82
2022/06/01 07:23:41;;;;;;;7.60;2.50;;;;;;;;;;5136369;27;20035;-81
2022/06/01 07:26:31;;;;;;;11.98;2.75;;;;;;;;;;5143542;27;20035;-81
2022/06/01 07:29:19;;;;;;;15.85;3.85;;;;;;;;;;5143588;27;20047;-79
2022/06/01 07:32:05;;;;;;;7.28;2.28;;;;;;;;;;5143374;27;20073;-79
2022/06/01 07:34:50;;;;;;;6.25;2.65;;;;;;;;;;5143144;27;20480;-78
2022/06/01 07:43:43;;;;;;;12.90;2.58;;;;;;;;;;5135789;27;20391;-78
2022/06/01 07:46:28;;;;;;;10.45;2.25;;;;;;;;;;5136145;27;20043;-78
2022/06/01 07:49:18;;;;;;;11.15;2.70;;;;;;;;;;5142327;27;20044;-78
2022/06/01 07:52:08;;;;;;;7.95;2.95;;;;;;;;;;5135451;27;20043;-78
2022/06/01 07:54:54;;;;;;;9.60;2.47;;;;;;;;;;5142745;27;20047;-76
2022/06/01 07:57:39;;;;;;;7.03;2.30;;;;;;;;;;5127347;27;20496;-78
2022/06/01 08:00:24;;;;;;;10.75;2.60;;;;;;;;;;5135696;27;20043;-75
2022/06/01 08:03:13;;;;;;;12.13;2.67;;;;;;;;;;5142093;27;20047;-74
2022/06/01 08:05:58;;;;;;;8.77;2.17;;;;;;;;;;5142322;27;20476;-74
2022/06/01 08:08:45;;;;;;;7.72;2.55;;;;;;;;;;5142054;27;20051;-75
2022/06/01 08:14:35;;;;;;;12.05;3.08;;;;;;;;;;5135241;27;20419;-74
2022/06/01 08:17:20;;;;;;;6.82;2.85;;;;;;;;;;5132680;27;20055;-74
2022/06/01 08:20:06;;;;;;;12.30;3.03;;;;;;;;;;5133987;27;20039;-74
2022/06/01 08:22:52;;;;;;;11.88;3.10;;;;;;;;;;5133897;27;20039;-74
2022/06/01 08:25:38;;;;;;;10.10;3.28;;;;;;;;;;5134809;27;20047;-74
2022/06/01 08:28:25;;;;;;;17.05;3.40;;;;;;;;;;5142303;27;20463;-74
2022/06/01 08:31:10;;;;;;;12.50;3.58;;;;;;;;;;5134610;27;20392;-75
2022/06/01 08:33:57;;;;;;;18.45;3.42;;;;;;;;;;5141790;27;20070;-75
2022/06/01 08:36:44;;;;;;;7.18;3.10;;;;;;;;;;5134988;27;20391;-75
2022/06/01 08:39:29;;;;;;;7.55;2.60;;;;;;;;;;5134737;27;20039;-75
2022/06/01 08:42:19;;;;;;;14.10;3.38;;;;;;;;;;5126403;27;20043;-75
2022/06/01 08:45:07;;;;;;;10.10;3.00;;;;;;;;;;5141488;27;20042;-77
2022/06/01 08:47:52;;;;;;;9.85;2.90;;;;;;;;;;5134777;27;20479;-78
2022/06/01 08:50:38;;;;;;;9.38;2.95;;;;;;;;;;5135181;27;20043;-78
2022/06/01 08:53:23;;;;;;;10.35;3.15;;;;;;;;;;5134560;27;20038;-78
2022/06/01 08:56:23;;;;;;;7.10;3.03;;;;;;;;;;5138239;27;20496;-78
2022/06/01 08:59:30;;;;;;;12.70;3.33;;;;;;;;;;5141518;27;20043;-78
2022/06/01 09:02:29;;;;;;;8.95;3.13;;;;;;;;;;5134708;28;20047;-78
2022/06/01 09:05:40;;;;;;;7.28;3.03;;;;;;;;;;5134844;28;20047;-79
2022/06/01 09:08:46;;;;;;;15.80;3.47;;;;;;;;;;5134793;27;20047;-78
2022/06/01 09:11:37;;;;;;;14.38;3.35;;;;;;;;;;5134266;28;20074;-78
2022/06/01 09:14:32;;;;;;;9.43;3.28;;;;;;;;;;5141122;27;20043;-78
2022/06/01 09:17:19;;;;;;;16.88;3.90;;;;;;;;;;5141804;27;20043;-77
2022/06/01 09:23:10;;;;;;;;;;;;;;;;;;5135042;28;20043;-78
2022/06/01 09:25:57;;;;;;;18.58;3.42;;;;;;;;;;5136006;28;19911;-79
2022/06/01 09:28:45;;;;;;;13.45;3.08;;;;;;;;;;5135040;28;20039;-78
2022/06/01 09:31:41;;;;;;;13.00;3.30;;;;;;;;;;5125857;27;20043;-77
2022/06/01 09:34:47;;;;;;;10.98;3.13;;;;;;;;;;5141322;27;20043;-78
2022/06/01 09:37:46;;;;;;;10.70;2.80;;;;;;;;;;5141598;27;20039;-77
2022/06/01 09:40:35;;;;;;;12.95;3.10;;;;;;;;;;5141162;27;20380;-78
2022/06/01 09:43:25;;;;;;;12.82;3.92;;;;;;;;;;5133957;28;20468;-78
2022/06/01 09:46:36;;;;;;;14.00;3.25;;;;;;;;;;5125223;27;20039;-77
2022/06/01 09:49:25;;;;;;;9.38;3.03;;;;;;;;;;5133972;28;20050;-78
2022/06/01 09:52:24;;;;;;;10.70;2.90;;;;;;;;;;5141096;27;20072;-79
2022/06/01 09:55:19;;;;;;;16.98;3.58;;;;;;;;;;5140885;27;20039;-79
2022/06/01 09:58:09;;;;;;;12.30;2.83;;;;;;;;;;5125785;27;20484;-78
2022/06/01 10:07:04;;;;;;;9.23;2.60;;;;;;;;;;5142308;27;20043;-78
2022/06/01 10:09:56;;;;;;;11.05;2.40;;;;;;;;;;5137539;27;20043;-78
2022/06/01 10:12:43;;;;;;;9.10;2.20;;;;;;;;;;5144716;27;20483;-78
2022/06/01 10:15:51;;;;;;;10.15;2.70;;;;;;;;;;5137408;27;20039;-78
2022/06/01 10:18:39;;;;;;;8.68;2.50;;;;;;;;;;5147804;27;20043;-79
2022/06/01 10:21:30;;;;;;;10.05;2.58;;;;;;;;;;5145509;27;20039;-79
2022/06/01 10:24:23;;;;;;;9.40;2.60;;;;;;;;;;5137423;27;20404;-78
2022/06/01 10:27:12;;;;;;;7.57;2.40;;;;;;;;;;5144747;27;20047;-78
2022/06/01 10:30:08;;;;;;;12.43;2.45;;;;;;;;;;5137727;27;20291;-78
2022/06/01 10:33:06;;;;;;;9.60;2.92;;;;;;;;;;5137212;27;20035;-77
2022/06/01 10:36:06;;;;;;;10.93;2.88;;;;;;;;;;5137259;27;20488;-78
2022/06/01 10:39:33;;;;;;;14.85;3.10;;;;;;;;;;5137058;27;20039;-78
2022/06/01 10:46:04;;;;;;;9.55;2.85;;;;;;;;;;5136996;27;20043;-79
2022/06/01 10:49:02;;;;;;;8.32;2.70;;;;;;;;;;5144468;27;20415;-81
2022/06/01 10:52:03;;;;;;;9.35;2.70;;;;;;;;;;5128651;27;20035;-81
2022/06/01 10:55:14;;;;;;;10.48;2.22;;;;;;;;;;5137125;27;20042;-81
2022/06/01 10:58:00;;;;;;;9.95;2.47;;;;;;;;;;5138082;27;20105;-77
2022/06/01 11:00:59;;;;;;;9.00;3.05;;;;;;;;;;5137137;27;20039;-75
2022/06/01 11:04:06;;;;;;;14.95;3.15;;;;;;;;;;5136956;27;20047;-75
2022/06/01 11:07:10;;;;;;;10.13;2.63;;;;;;;;;;5136774;27;20059;-77
2022/06/01 11:10:26;;;;;;;6.72;2.50;;;;;;;;;;5143660;27;20039;-77
2022/06/01 11:13:18;;;;;;;10.07;2.40;;;;;;;;;;5116019;27;20043;-77
2022/06/01 11:16:24;;;;;;;14.20;2.85;;;;;;;;;;5136462;27;20035;-77
2022/06/01 11:19:34;;;;;;;9.68;3.13;;;;;;;;;;5143333;27;20042;-77
2022/06/01 11:22:52;;;;;;;9.68;2.88;;;;;;;;;;5143144;27;20054;-77
2022/06/01 11:26:11;;;;;;;14.93;3.00;;;;;;;;;;5136419;27;20047;-78
2022/06/01 11:29:07;;;;;;;10.40;3.00;;;;;;;;;;5143231;27;20035;-78
2022/06/01 11:31:56;;;;;;;7.75;2.10;;;;;;;;;;5136188;27;20040;-77
2022/06/01 11:35:15;;;;;;;6.60;2.38;;;;;;;;;;5144110;27;20042;-79
2022/06/01 11:38:25;;;;;;;7.18;2.40;;;;;;;;;;5145912;27;20047;-79
2022/06/01 11:41:23;;;;;;;13.73;3.10;;;;;;;;;;5142146;27;20035;-80
2022/06/01 11:44:17;;;;;;;4.85;2.30;;;;;;;;;;5144583;27;20046;-78
2022/06/01 11:47:09;;;;;;;6.28;2.17;;;;;;;;;;5143748;27;20047;-77
2022/06/01 11:50:24;;;;;;;12.73;3.28;;;;;;;;;;5143197;27;20039;-78
2022/06/01 11:53:18;;;;;;;11.70;2.60;;;;;;;;;;5129241;27;20039;-78
2022/06/01 11:56:30;;;;;;;8.30;2.45;;;;;;;;;;5136953;27;20051;-78
2022/06/01 11:59:27;;;;;;;8.23;2.65;;;;;;;;;;5144021;27;20391;-77
2022/06/01 12:02:50;;;;;;;14.60;2.90;;;;;;;;;;5142535;27;20062;-77
2022/06/01 12:05:56;;;;;;;16.17;3.03;;;;;;;;;;5135412;27;20483;-78
2022/06/01 12:08:56;;;;;;;10.70;2.92;;;;;;;;;;5115298;28;20047;-77
2022/06/01 12:11:46;;;;;;;14.32;2.85;;;;;;;;;;5114537;28;20039;-77
2022/06/01 12:14:31;;;;;;;12.93;2.80;;;;;;;;;;5114749;28;20048;-78
2022/06/01 12:17:25;;;;;;;6.82;2.60;;;;;;;;;;5121975;28;20035;-77
2022/06/01 12:20:44;;;;;;;17.43;3.07;;;;;;;;;;5114469;28;20040;-78
2022/06/01 12:29:52;;;;;;;9.25;2.78;;;;;;;;;;5114805;28;20039;-78
2022/06/01 12:32:59;;;;;;;14.52;2.92;;;;;;;;;;5122127;28;20047;-77
2022/06/01 12:35:52;;;;;;;6.15;2.50;;;;;;;;;;5121270;28;20416;-77
2022/06/01 12:38:39;;;;;;;9.32;2.60;;;;;;;;;;5121510;28;20039;-75
2022/06/01 12:41:29;;;;;;;8.65;2.30;;;;;;;;;;5105854;28;20381;-76
2022/06/01 12:44:16;;;;;;;11.93;3.38;;;;;;;;;;5115115;28;20043;-76
2022/06/01 12:47:02;;;;;;;9.75;2.88;;;;;;;;;;5121065;28;20044;-77
2022/06/01 12:49:48;;;;;;;8.57;2.67;;;;;;;;;;5121118;28;20040;-77
2022/06/01 12:52:33;;;;;;;9.23;2.58;;;;;;;;;;5114395;28;20392;-75
2022/06/01 12:55:22;;;;;;;6.78;2.38;;;;;;;;;;5113939;28;20044;-74
2022/06/01 12:58:20;;;;;;;12.77;2.72;;;;;;;;;;5106124;28;20048;-75
2022/06/01 13:01:06;;;;;;;18.30;3.20;;;;;;;;;;5114166;28;20465;-75
2022/06/01 13:03:56;;;;;;;13.15;2.58;;;;;;;;;;5120971;28;20035;-74
2022/06/01 13:06:43;;;;;;;12.73;2.70;;;;;;;;;;5123701;28;20055;-75
2022/06/01 13:09:32;;;;;;;14.63;2.75;;;;;;;;;;5134381;28;20035;-75
2022/06/01 13:12:18;;;;;;;10.15;2.70;;;;;;;;;;5141497;27;20043;-74
2022/06/01 13:15:21;;;;;;;7.65;2.53;;;;;;;;;;5141214;27;20042;-75
2022/06/01 13:18:14;;;;;;;10.32;2.53;;;;;;;;;;5141980;27;20039;-76
2022/06/01 13:21:17;;;;;;;9.75;2.75;;;;;;;;;;5135110;28;20047;-74
2022/06/01 13:24:07;;;;;;;6.87;2.30;;;;;;;;;;5141206;27;20039;-75
2022/06/01 13:26:55;;;;;;;18.55;2.72;;;;;;;;;;5134722;28;20047;-75
2022/06/01 13:29:46;;;;;;;8.82;2.42;;;;;;;;;;5125604;27;20051;-75
2022/06/01 13:32:40;;;;;;;10.45;2.70;;;;;;;;;;5141545;27;20039;-74
2022/06/01 13:35:41;;;;;;;11.55;2.67;;;;;;;;;;5138711;27;20039;-74
2022/06/01 13:38:41;;;;;;;10.80;2.78;;;;;;;;;;5145085;27;20039;-74
2022/06/01 13:41:37;;;;;;;12.30;2.60;;;;;;;;;;5138646;27;20475;-74
2022/06/01 13:44:46;;;;;;;14.88;3.20;;;;;;;;;;5144669;27;20401;-74
2022/06/01 13:47:35;;;;;;;10.95;2.83;;;;;;;;;;5138139;27;20039;-74
2022/06/01 13:50:27;;;;;;;17.13;3.00;;;;;;;;;;5145568;27;20043;-77
2022/06/01 13:53:21;;;;;;;13.68;2.90;;;;;;;;;;5147550;27;20460;-75
2022/06/01 13:56:40;;;;;;;12.98;3.08;;;;;;;;;;5138053;27;20043;-75
2022/06/01 13:59:34;;;;;;;13.88;2.65;;;;;;;;;;5143679;27;20035;-75
2022/06/01 14:02:43;;;;;;;11.82;2.65;;;;;;;;;;5138263;27;20035;-75
2022/06/01 14:05:41;;;;;;;16.08;2.95;;;;;;;;;;5137705;27;20039;-76
2022/06/01 14:08:32;;;;;;;10.13;2.95;;;;;;;;;;5137896;27;20039;-76
2022/06/01 14:11:27;;;;;;;8.80;2.65;;;;;;;;;;5138094;27;20047;-77
2022/06/01 14:14:18;;;;;;;11.23;3.08;;;;;;;;;;5145033;27;20027;-80
2022/06/01 14:17:09;;;;;;;14.15;3.08;;;;;;;;;;5139673;27;20043;-78
2022/06/01 14:19:54;;;;;;;13.98;2.95;;;;;;;;;;5138171;27;20488;-78
2022/06/01 14:22:39;;;;;;;6.10;2.53;;;;;;;;;;5138404;27;20039;-82
2022/06/01 14:28:31;;;;;;;17.98;3.20;;;;;;;;;;5144388;27;20392;-77
2022/06/01 14:31:46;;;;;;;8.93;2.78;;;;;;;;;;5137373;27;20039;-78
2022/06/01 14:34:32;;;;;;;8.63;2.65;;;;;;;;;;5129713;27;20047;-77
2022/06/01 14:37:17;;;;;;;10.68;3.10;;;;;;;;;;5137341;27;20035;-75
2022/06/01 14:40:05;;;;;;;11.95;3.10;;;;;;;;;;5137197;27;20046;-77
2022/06/01 14:42:51;;;;;;;12.32;3.17;;;;;;;;;;5144015;27;20491;-76
2022/06/01 14:45:37;;;;;;;9.60;2.60;;;;;;;;;;5143652;27;20039;-77
2022/06/01 14:48:22;;;;;;;14.90;3.35;;;;;;;;;;5143633;27;20039;-75
2022/06/01 14:51:11;;;;;;;13.23;3.10;;;;;;;;;;5137395;27;20035;-75
2022/06/01 14:54:00;;;;;;;14.60;2.95;;;;;;;;;;5137193;27;20046;-77
2022/06/01 14:56:45;;;;;;;8.27;2.53;;;;;;;;;;5136841;27;20047;-77
2022/06/01 14:59:31;;;;;;;8.90;3.15;;;;;;;;;;5137081;27;20035;-77
2022/06/01 15:02:19;;;;;;;14.05;3.28;;;;;;;;;;5136485;27;20047;-77
2022/06/01 15:05:05;;;;;;;8.65;3.00;;;;;;;;;;5121603;27;20038;-77
2022/06/01 15:07:51;;;;;;;9.60;2.90;;;;;;;;;;5138261;27;20047;-78
2022/06/01 15:10:36;;;;;;;15.70;3.67;;;;;;;;;;5136409;27;20039;-76
2022/06/01 15:13:22;;;;;;;7.85;3.13;;;;;;;;;;5143873;27;20047;-76
2022/06/01 15:16:08;;;;;;;11.70;2.90;;;;;;;;;;5143082;27;20487;-75
2022/06/01 15:18:58;;;;;;;17.90;3.25;;;;;;;;;;5136807;27;20039;-77
2022/06/01 15:21:44;;;;;;;12.93;3.40;;;;;;;;;;5136418;27;20503;-78
2022/06/01 15:24:29;;;;;;;12.20;3.03;;;;;;;;;;5120915;27;20039;-75
2022/06/01 15:27:20;;;;;;;9.52;2.95;;;;;;;;;;5136402;27;20046;-75
2022/06/01 15:39:31;;;;;;;14.02;3.05;;;;;;;;;;5135935;27;20047;-75
2022/06/01 15:42:17;;;;;;;13.57;3.25;;;;;;;;;;5122720;27;20051;-74
2022/06/01 15:45:03;;;;;;;12.93;3.42;;;;;;;;;;5142622;27;20039;-77
2022/06/01 15:47:55;;;;;;;10.07;2.80;;;;;;;;;;5135879;27;20039;-78
2022/06/01 15:50:43;;;;;;;13.20;3.28;;;;;;;;;;5135833;27;20047;-75
2022/06/01 15:53:28;;;;;;;10.75;3.33;;;;;;;;;;5135497;27;20043;-75
2022/06/01 15:56:14;;;;;;;12.75;3.42;;;;;;;;;;5135145;27;20039;-75
2022/06/01 15:59:01;;;;;;;10.63;3.28;;;;;;;;;;5142413;27;20047;-75
2022/06/01 16:01:46;;;;;;;9.63;3.40;;;;;;;;;;5142472;27;20047;-75
2022/06/01 16:04:31;;;;;;;12.38;3.33;;;;;;;;;;5146103;27;20043;-76
2022/06/01 16:07:18;;;;;;;11.57;2.95;;;;;;;;;;5138781;27;20047;-75
2022/06/01 16:10:05;;;;;;;8.25;3.00;;;;;;;;;;5142300;27;20043;-77
2022/06/01 16:12:51;;;;;;;9.90;3.65;;;;;;;;;;5135084;27;20043;-76
2022/06/01 16:15:40;;;;;;;9.48;3.58;;;;;;;;;;5135430;27;20047;-76
2022/06/01 16:18:26;;;;;;;12.82;3.92;;;;;;;;;;5135604;27;20042;-75
2022/06/01 16:21:12;;;;;;;11.23;3.70;;;;;;;;;;5142026;27;20039;-76
2022/06/01 16:23:58;;;;;;;10.55;3.80;;;;;;;;;;5142137;27;20051;-76
2022/06/01 16:26:45;;;;;;;16.08;3.75;;;;;;;;;;5141837;27;20106;-75
2022/06/01 16:29:30;;;;;;;8.95;3.15;;;;;;;;;;5135331;27;20046;-77
2022/06/01 16:32:26;;;;;;;13.48;3.67;;;;;;;;;;5141741;27;20043;-76
2022/06/01 16:35:15;;;;;;;11.63;3.78;;;;;;;;;;5141777;27;20042;-76
2022/06/01 16:38:02;;;;;;;15.90;4.05;;;;;;;;;;5134769;27;20051;-76
2022/06/01 16:40:49;;;;;;;11.05;4.10;;;;;;;;;;5141767;27;20035;-79
2022/06/01 16:43:40;;;;;;;9.25;3.65;;;;;;;;;;5134852;27;20035;-77
2022/06/01 16:46:25;;;;;;;14.10;3.58;;;;;;;;;;5141715;27;20039;-80
2022/06/01 16:49:12;;;;;;;14.45;3.55;;;;;;;;;;5134830;27;20058;-76
2022/06/01 16:51:58;;;;;;;11.55;3.28;;;;;;;;;;5141576;27;20031;-78
2022/06/01 16:54:43;;;;;;;14.25;3.47;;;;;;;;;;5141151;27;20039;-76
2022/06/01 16:57:30;;;;;;;9.32;3.80;;;;;;;;;;5134728;27;20046;-80
2022/06/01 17:00:16;;;;;;;11.68;3.63;;;;;;;;;;5134751;27;20420;-82
2022/06/01 17:03:05;;;;;;;10.77;3.28;;;;;;;;;;5134803;27;20035;-82
2022/06/01 17:05:50;;;;;;;11.00;3.58;;;;;;;;;;5141746;27;20392;-83
2022/06/01 17:08:37;;;;;;;10.65;3.38;;;;;;;;;;5134517;27;20044;-82
2022/06/01 17:11:23;;;;;;;10.55;3.50;;;;;;;;;;5141292;27;20039;-82
2022/06/01 17:14:08;;;;;;;13.20;3.63;;;;;;;;;;5141441;27;20380;-81
2022/06/01 17:16:54;;;;;;;9.23;3.55;;;;;;;;;;5134308;28;20043;-82
2022/06/01 17:19:40;;;;;;;13.73;4.25;;;;;;;;;;5141878;27;20496;-83
2022/06/01 17:22:35;;;;;;;10.70;3.75;;;;;;;;;;5141814;27;20040;-78
2022/06/01 17:25:29;;;;;;;13.07;4.00;;;;;;;;;;5139543;27;20488;-75
2022/06/01 17:28:15;;;;;;;14.73;3.78;;;;;;;;;;5134110;28;20035;-75
2022/06/01 17:31:11;;;;;;;12.25;4.05;;;;;;;;;;5111258;27;20043;-75
2022/06/01 17:33:57;;;;;;;9.75;3.90;;;;;;;;;;5125841;27;20043;-75
2022/06/01 17:36:43;;;;;;;8.23;3.80;;;;;;;;;;5133735;28;20043;-75
2022/06/01 17:39:28;;;;;;;8.93;3.70;;;;;;;;;;5133859;28;20047;-73
2022/06/01 17:42:15;;;;;;;13.18;3.72;;;;;;;;;;5141028;27;20036;-77